Time;durP1;ratioP1;P1;durP2;ratioP2;P2;SDS_P1;SDS_P2;PMS_P1;PMS_P2;Temp;Humidity;BMP_temperature;BMP_pressure;BME280_temperature;BME280_humidity;BME280_pressure;Samples;Min_cycle;Max_cycle;Signal;HPM_P1;HPM_P2
2022/07/31 00:00:15;;;;;;;;;0.00;0.00;;;;;;;;5011106;28;8868;-80
2022/07/31 00:02:43;;;;;;;;;0.75;0.75;;;;;;;;5023507;28;8889;-81
2022/07/31 00:05:11;;;;;;;;;0.75;0.75;;;;;;;;5022443;28;8934;-82
2022/07/31 00:07:38;;;;;;;;;0.00;0.00;;;;;;;;5013284;28;8938;-83
2022/07/31 00:10:07;;;;;;;;;0.00;0.00;;;;;;;;5009707;28;8899;-82
2022/07/31 00:12:34;;;;;;;;;2.00;0.00;;;;;;;;5014429;28;8851;-81
2022/07/31 00:15:04;;;;;;;;;0.00;0.00;;;;;;;;5005916;28;8886;-81
2022/07/31 00:17:31;;;;;;;;;0.00;0.00;;;;;;;;5005434;28;8910;-80
2022/07/31 00:19:59;;;;;;;;;0.25;0.25;;;;;;;;5017895;28;8878;-83
2022/07/31 00:22:26;;;;;;;;;0.00;0.00;;;;;;;;5020006;28;8891;-80
2022/07/31 00:24:54;;;;;;;;;0.00;0.00;;;;;;;;5045610;28;8876;-83
2022/07/31 00:27:22;;;;;;;;;0.00;0.00;;;;;;;;5016883;28;8889;-82
2022/07/31 00:29:51;;;;;;;;;1.00;1.00;;;;;;;;5023323;28;8873;-82
2022/07/31 00:32:20;;;;;;;;;0.00;0.00;;;;;;;;5023980;28;8842;-82
2022/07/31 00:34:47;;;;;;;;;0.00;0.00;;;;;;;;5005088;28;10070;-82
2022/07/31 00:37:15;;;;;;;;;2.00;0.00;;;;;;;;5004587;28;8884;-82
2022/07/31 00:39:42;;;;;;;;;0.00;0.00;;;;;;;;5006061;28;8922;-82
2022/07/31 00:42:17;;;;;;;;;0.00;0.00;;;;;;;;5005071;28;8926;-81
2022/07/31 00:44:44;;;;;;;;;0.00;0.00;;;;;;;;5011204;28;9501;-82
2022/07/31 00:47:12;;;;;;;;;0.00;0.00;;;;;;;;4987553;28;8861;-82
2022/07/31 00:49:40;;;;;;;;;0.00;0.00;;;;;;;;5012318;28;8869;-82
2022/07/31 00:52:08;;;;;;;;;0.00;0.00;;;;;;;;5013573;28;8876;-81
2022/07/31 00:54:36;;;;;;;;;0.00;0.00;;;;;;;;5015511;28;8983;-82
2022/07/31 00:57:04;;;;;;;;;0.00;0.00;;;;;;;;5008108;28;8872;-82
2022/07/31 00:59:32;;;;;;;;;0.50;0.50;;;;;;;;5015541;28;8997;-82
2022/07/31 01:01:59;;;;;;;;;1.00;1.00;;;;;;;;5014991;28;8846;-81
2022/07/31 01:04:27;;;;;;;;;0.00;0.00;;;;;;;;5015312;28;8891;-80
2022/07/31 01:06:56;;;;;;;;;0.50;0.50;;;;;;;;5015605;28;8885;-80
2022/07/31 01:09:23;;;;;;;;;0.25;0.25;;;;;;;;5014933;28;8857;-81
2022/07/31 01:11:55;;;;;;;;;0.00;0.00;;;;;;;;5007964;28;8996;-81
2022/07/31 01:14:26;;;;;;;;;0.00;0.00;;;;;;;;5013898;28;8876;-81
2022/07/31 01:16:55;;;;;;;;;0.00;0.00;;;;;;;;5013092;28;9002;-81
2022/07/31 01:19:25;;;;;;;;;2.50;0.00;;;;;;;;5011743;28;8868;-81
2022/07/31 01:22:03;;;;;;;;;0.00;0.00;;;;;;;;5017468;28;8873;-82
2022/07/31 01:24:45;;;;;;;;;0.75;0.75;;;;;;;;5006813;28;8898;-82
2022/07/31 01:27:23;;;;;;;;;2.25;0.75;;;;;;;;5016155;28;8861;-81
2022/07/31 01:29:55;;;;;;;;;0.50;0.50;;;;;;;;5011313;28;8900;-82
2022/07/31 01:32:28;;;;;;;;;0.00;0.00;;;;;;;;5004938;28;8955;-82
2022/07/31 01:35:00;;;;;;;;;1.00;1.00;;;;;;;;5003548;28;9837;-82
2022/07/31 01:37:31;;;;;;;;;1.00;1.00;;;;;;;;5007323;28;8871;-83
2022/07/31 01:40:02;;;;;;;;;2.00;0.00;;;;;;;;5009895;28;8974;-81
2022/07/31 01:42:30;;;;;;;;;1.00;1.00;;;;;;;;5005636;28;9009;-83
2022/07/31 01:45:02;;;;;;;;;1.00;1.00;;;;;;;;5005972;28;8898;-82
2022/07/31 01:47:30;;;;;;;;;0.00;0.00;;;;;;;;5004900;28;8880;-82
2022/07/31 01:49:58;;;;;;;;;0.25;0.25;;;;;;;;5008289;28;8884;-83
2022/07/31 01:52:28;;;;;;;;;1.00;1.00;;;;;;;;5004272;28;8856;-82
2022/07/31 01:54:58;;;;;;;;;1.25;1.00;;;;;;;;5002240;28;8982;-83
2022/07/31 01:57:26;;;;;;;;;2.00;1.00;;;;;;;;5001834;28;8881;-81
2022/07/31 01:59:56;;;;;;;;;0.25;0.25;;;;;;;;5005946;28;8906;-81
2022/07/31 02:02:26;;;;;;;;;0.25;0.25;;;;;;;;5009353;28;8837;-81
2022/07/31 02:04:54;;;;;;;;;0.00;0.00;;;;;;;;5003238;28;8902;-81
2022/07/31 02:07:22;;;;;;;;;1.00;1.00;;;;;;;;5009667;28;8988;-82
2022/07/31 02:09:51;;;;;;;;;2.50;1.00;;;;;;;;5008003;28;8872;-80
2022/07/31 02:12:19;;;;;;;;;0.00;0.00;;;;;;;;5035128;28;9607;-80
2022/07/31 02:14:50;;;;;;;;;1.50;1.50;;;;;;;;5019965;28;8861;-80
2022/07/31 02:17:17;;;;;;;;;0.00;0.00;;;;;;;;5006851;28;8869;-82
2022/07/31 02:19:46;;;;;;;;;0.25;0.25;;;;;;;;5012340;28;8865;-81
2022/07/31 02:22:14;;;;;;;;;0.00;0.00;;;;;;;;5014498;28;8881;-82
2022/07/31 02:24:41;;;;;;;;;0.25;0.25;;;;;;;;4970746;28;8881;-82
2022/07/31 02:27:10;;;;;;;;;1.25;1.25;;;;;;;;4975228;28;8883;-81
2022/07/31 02:29:38;;;;;;;;;0.00;0.00;;;;;;;;4967706;28;8899;-82
2022/07/31 02:32:06;;;;;;;;;0.00;0.00;;;;;;;;4955283;28;8923;-82
2022/07/31 02:34:35;;;;;;;;;0.50;0.50;;;;;;;;4969955;28;8865;-82
2022/07/31 02:37:04;;;;;;;;;1.00;1.00;;;;;;;;4964840;28;9679;-82
2022/07/31 02:39:33;;;;;;;;;1.00;1.00;;;;;;;;4975514;28;8898;-82
2022/07/31 02:42:01;;;;;;;;;1.75;1.75;;;;;;;;4966873;28;8957;-81
2022/07/31 02:44:30;;;;;;;;;2.00;2.00;;;;;;;;4976355;28;8905;-81
2022/07/31 02:46:58;;;;;;;;;1.00;1.00;;;;;;;;4972604;28;8889;-82
2022/07/31 02:49:26;;;;;;;;;2.00;1.00;;;;;;;;4970846;28;8870;-80
2022/07/31 02:51:55;;;;;;;;;1.25;1.25;;;;;;;;4971027;28;8881;-81
2022/07/31 02:54:24;;;;;;;;;3.00;1.50;;;;;;;;4965401;28;8878;-82
2022/07/31 02:56:53;;;;;;;;;2.00;2.00;;;;;;;;4957466;28;8862;-80
2022/07/31 02:59:21;;;;;;;;;3.00;1.00;;;;;;;;4974167;28;8875;-81
2022/07/31 03:01:48;;;;;;;;;0.75;0.75;;;;;;;;4963816;28;9670;-80
2022/07/31 03:04:16;;;;;;;;;1.75;1.75;;;;;;;;4975868;28;9401;-82
2022/07/31 03:06:43;;;;;;;;;2.00;2.00;;;;;;;;4966014;28;8892;-80
2022/07/31 03:09:10;;;;;;;;;1.00;1.00;;;;;;;;4974782;28;9001;-82
2022/07/31 03:11:39;;;;;;;;;0.50;0.50;;;;;;;;4965973;28;8933;-80
2022/07/31 03:14:09;;;;;;;;;2.00;2.00;;;;;;;;4973857;28;8907;-80
2022/07/31 03:16:36;;;;;;;;;1.75;1.75;;;;;;;;4964521;28;9640;-81
2022/07/31 03:19:05;;;;;;;;;1.00;1.00;;;;;;;;4961961;28;8899;-81
2022/07/31 03:21:32;;;;;;;;;2.25;2.00;;;;;;;;4964255;28;9016;-81
2022/07/31 03:24:00;;;;;;;;;1.75;1.75;;;;;;;;4994362;28;8857;-82
2022/07/31 03:26:28;;;;;;;;;1.00;1.00;;;;;;;;5012920;28;8960;-82
2022/07/31 03:28:57;;;;;;;;;1.00;1.00;;;;;;;;5013315;28;8906;-81
2022/07/31 03:31:26;;;;;;;;;2.00;2.00;;;;;;;;5010741;28;8810;-81
2022/07/31 03:33:53;;;;;;;;;1.00;1.00;;;;;;;;5005460;28;8900;-81
2022/07/31 03:36:20;;;;;;;;;1.00;1.00;;;;;;;;5000743;28;8978;-82
2022/07/31 03:38:48;;;;;;;;;2.00;2.00;;;;;;;;5006480;28;8899;-82
2022/07/31 03:41:16;;;;;;;;;1.50;1.50;;;;;;;;5010063;28;8889;-81
2022/07/31 03:43:44;;;;;;;;;3.00;1.75;;;;;;;;5008431;28;8868;-82
2022/07/31 03:46:15;;;;;;;;;2.00;2.00;;;;;;;;5012293;28;8903;-82
2022/07/31 03:48:42;;;;;;;;;1.00;1.00;;;;;;;;5008043;28;8915;-82
2022/07/31 03:51:10;;;;;;;;;2.20;2.20;;;;;;;;5013787;28;8910;-80
2022/07/31 03:53:38;;;;;;;;;2.50;2.50;;;;;;;;5007003;28;8907;-81
2022/07/31 03:56:06;;;;;;;;;1.75;1.75;;;;;;;;5013191;28;8990;-80
2022/07/31 03:58:34;;;;;;;;;3.00;3.00;;;;;;;;5012120;28;9607;-81
2022/07/31 04:01:01;;;;;;;;;2.00;2.00;;;;;;;;5012007;28;9574;-81
2022/07/31 04:03:32;;;;;;;;;2.80;2.80;;;;;;;;5013164;28;8884;-81
2022/07/31 04:05:59;;;;;;;;;2.00;2.00;;;;;;;;5014162;28;8889;-80
2022/07/31 04:08:26;;;;;;;;;2.00;2.00;;;;;;;;5012617;28;8873;-81
2022/07/31 04:10:54;;;;;;;;;2.00;2.00;;;;;;;;5009906;28;8887;-81
2022/07/31 04:13:21;;;;;;;;;3.00;3.00;;;;;;;;5014444;28;8887;-80
2022/07/31 04:15:48;;;;;;;;;3.25;3.25;;;;;;;;5008774;28;8898;-81
2022/07/31 04:18:15;;;;;;;;;2.20;2.20;;;;;;;;5014706;28;8870;-82
2022/07/31 04:20:44;;;;;;;;;2.00;2.00;;;;;;;;5017403;28;8904;-81
2022/07/31 04:23:11;;;;;;;;;3.50;2.00;;;;;;;;5018332;28;8917;-82
2022/07/31 04:25:39;;;;;;;;;2.25;2.25;;;;;;;;5014103;28;8873;-81
2022/07/31 04:28:06;;;;;;;;;3.00;3.00;;;;;;;;5012947;28;8868;-81
2022/07/31 04:30:33;;;;;;;;;3.00;3.00;;;;;;;;5013637;28;8941;-82
2022/07/31 04:33:00;;;;;;;;;2.75;2.75;;;;;;;;5018531;28;8901;-82
2022/07/31 04:35:28;;;;;;;;;2.00;2.00;;;;;;;;5008325;28;8898;-82
2022/07/31 04:37:56;;;;;;;;;4.75;4.75;;;;;;;;5005292;28;8876;-82
2022/07/31 04:40:25;;;;;;;;;5.00;5.00;;;;;;;;5007069;28;8884;-81
2022/07/31 04:42:52;;;;;;;;;4.25;4.25;;;;;;;;5019449;28;8893;-82
2022/07/31 04:45:19;;;;;;;;;4.00;4.00;;;;;;;;5014024;28;8906;-81
2022/07/31 04:47:46;;;;;;;;;5.00;5.00;;;;;;;;5005865;28;8872;-80
2022/07/31 04:50:14;;;;;;;;;4.25;4.25;;;;;;;;5011802;28;8883;-81
2022/07/31 04:52:41;;;;;;;;;5.50;5.50;;;;;;;;5019743;28;8900;-81
2022/07/31 04:55:10;;;;;;;;;4.00;4.00;;;;;;;;5004719;28;8942;-81
2022/07/31 04:57:38;;;;;;;;;5.00;5.00;;;;;;;;5019923;28;9592;-82
2022/07/31 05:00:07;;;;;;;;;5.00;5.00;;;;;;;;5013374;28;9245;-82
2022/07/31 05:02:34;;;;;;;;;6.50;5.00;;;;;;;;5041978;28;9752;-81
2022/07/31 05:05:02;;;;;;;;;7.50;5.50;;;;;;;;5014282;28;8887;-82
2022/07/31 05:07:29;;;;;;;;;3.75;3.75;;;;;;;;5004402;28;8884;-82
2022/07/31 05:09:57;;;;;;;;;4.75;4.75;;;;;;;;5014338;28;8864;-80
2022/07/31 05:12:26;;;;;;;;;4.00;4.00;;;;;;;;5016512;28;8873;-81
2022/07/31 05:14:53;;;;;;;;;4.75;4.75;;;;;;;;5010779;28;8904;-81
2022/07/31 05:17:21;;;;;;;;;5.00;5.00;;;;;;;;5012740;28;8885;-81
2022/07/31 05:19:48;;;;;;;;;4.00;4.00;;;;;;;;5014809;28;8897;-81
2022/07/31 05:22:16;;;;;;;;;6.25;4.25;;;;;;;;5015164;28;8865;-80
2022/07/31 05:24:43;;;;;;;;;5.00;5.00;;;;;;;;5014876;28;9671;-82
2022/07/31 05:27:10;;;;;;;;;4.00;4.00;;;;;;;;5008424;28;8890;-81
2022/07/31 05:29:39;;;;;;;;;5.00;5.00;;;;;;;;5014810;28;8873;-80
2022/07/31 05:32:07;;;;;;;;;7.00;7.00;;;;;;;;5013682;28;8861;-81
2022/07/31 05:34:34;;;;;;;;;3.75;3.75;;;;;;;;5011674;28;8852;-82
2022/07/31 05:37:02;;;;;;;;;5.25;5.25;;;;;;;;5011549;28;8872;-82
2022/07/31 05:39:29;;;;;;;;;5.50;4.00;;;;;;;;5017204;28;8991;-83
2022/07/31 05:41:57;;;;;;;;;5.50;4.00;;;;;;;;5012869;28;8882;-81
2022/07/31 05:44:24;;;;;;;;;4.75;4.75;;;;;;;;5010499;28;8868;-81
2022/07/31 05:46:53;;;;;;;;;6.00;6.00;;;;;;;;5010066;28;10008;-82
2022/07/31 05:49:22;;;;;;;;;4.50;4.50;;;;;;;;5011179;28;8878;-82
2022/07/31 05:51:53;;;;;;;;;4.00;4.00;;;;;;;;5011237;28;8865;-81
2022/07/31 05:54:20;;;;;;;;;5.00;5.00;;;;;;;;5009829;28;8989;-82
2022/07/31 05:56:47;;;;;;;;;5.00;5.00;;;;;;;;5011858;28;8853;-80
2022/07/31 05:59:15;;;;;;;;;5.50;5.00;;;;;;;;5016818;28;8900;-83
2022/07/31 06:01:42;;;;;;;;;5.75;5.75;;;;;;;;5010178;28;8820;-80
2022/07/31 06:04:10;;;;;;;;;5.25;5.25;;;;;;;;5016281;28;9635;-81
2022/07/31 06:06:38;;;;;;;;;7.00;7.00;;;;;;;;5009515;28;8876;-80
2022/07/31 06:09:05;;;;;;;;;5.75;5.00;;;;;;;;5016040;28;8925;-82
2022/07/31 06:11:32;;;;;;;;;6.25;6.25;;;;;;;;5009050;28;8876;-82
2022/07/31 06:14:00;;;;;;;;;4.75;4.75;;;;;;;;5015256;28;8900;-82
2022/07/31 06:16:27;;;;;;;;;6.75;6.75;;;;;;;;5012589;28;8967;-81
2022/07/31 06:18:54;;;;;;;;;7.00;7.00;;;;;;;;5014149;28;8854;-80
2022/07/31 06:21:25;;;;;;;;;7.75;7.75;;;;;;;;5012834;28;8893;-83
2022/07/31 06:23:53;;;;;;;;;7.00;7.00;;;;;;;;5006825;28;9730;-81
2022/07/31 06:26:20;;;;;;;;;7.75;7.75;;;;;;;;5014203;28;8857;-82
2022/07/31 06:28:48;;;;;;;;;10.00;10.00;;;;;;;;5015427;28;8881;-81
2022/07/31 06:31:19;;;;;;;;;7.50;7.50;;;;;;;;5014776;28;8818;-81
2022/07/31 06:33:47;;;;;;;;;13.25;11.25;;;;;;;;5014654;28;8872;-82
2022/07/31 06:36:15;;;;;;;;;8.00;8.00;;;;;;;;5009649;28;8891;-80
2022/07/31 06:38:44;;;;;;;;;8.25;8.25;;;;;;;;5028551;28;8879;-82
2022/07/31 06:41:43;;;;;;;;;11.25;11.25;;;;;;;;5017031;28;8888;-81
2022/07/31 06:43:59;;;;;;;;;10.75;10.00;;;;;;;;5004837;28;8958;-82
2022/07/31 06:46:27;;;;;;;;;8.25;8.25;;;;;;;;5016138;28;8870;-82
2022/07/31 06:48:54;;;;;;;;;11.50;10.50;;;;;;;;5005261;28;8872;-80
2022/07/31 06:51:21;;;;;;;;;11.50;11.00;;;;;;;;5016403;28;8866;-80
2022/07/31 06:53:50;;;;;;;;;9.75;9.75;;;;;;;;5014559;28;8866;-81
2022/07/31 06:56:17;;;;;;;;;10.75;10.75;;;;;;;;5011960;28;8878;-82
2022/07/31 06:58:44;;;;;;;;;14.25;12.75;;;;;;;;5015197;28;8873;-81
2022/07/31 07:01:12;;;;;;;;;12.00;12.00;;;;;;;;5013600;28;8916;-82
2022/07/31 07:03:40;;;;;;;;;10.75;10.50;;;;;;;;5014667;28;8866;-81
2022/07/31 07:06:07;;;;;;;;;10.80;10.80;;;;;;;;5014899;28;8868;-82
2022/07/31 07:08:34;;;;;;;;;11.00;11.00;;;;;;;;5015760;28;8904;-81
2022/07/31 07:11:03;;;;;;;;;13.20;12.00;;;;;;;;5010969;28;8934;-81
2022/07/31 07:13:30;;;;;;;;;7.80;7.80;;;;;;;;5009874;28;8987;-82
2022/07/31 07:15:58;;;;;;;;;13.00;13.00;;;;;;;;5005832;28;9028;-82
2022/07/31 07:18:25;;;;;;;;;13.25;13.25;;;;;;;;5015087;28;8919;-81
2022/07/31 07:20:53;;;;;;;;;13.00;11.40;;;;;;;;5017250;28;8902;-80
2022/07/31 07:23:24;;;;;;;;;10.75;10.50;;;;;;;;5018921;28;8885;-82
2022/07/31 07:25:54;;;;;;;;;13.00;13.00;;;;;;;;5014513;28;8880;-82
2022/07/31 07:28:23;;;;;;;;;11.75;11.00;;;;;;;;5012584;28;8901;-81
2022/07/31 07:30:51;;;;;;;;;12.75;12.75;;;;;;;;5007574;28;8875;-81
2022/07/31 07:33:18;;;;;;;;;16.50;13.00;;;;;;;;5021425;28;8939;-81
2022/07/31 07:35:46;;;;;;;;;9.00;9.00;;;;;;;;5006792;28;8966;-82
2022/07/31 07:38:13;;;;;;;;;8.50;8.50;;;;;;;;5021406;28;8862;-80
2022/07/31 07:40:40;;;;;;;;;15.25;15.00;;;;;;;;5015112;28;8880;-81
2022/07/31 07:43:08;;;;;;;;;11.00;11.00;;;;;;;;5019972;28;8879;-81
2022/07/31 07:45:38;;;;;;;;;16.25;14.25;;;;;;;;5011920;28;8887;-82
2022/07/31 07:48:06;;;;;;;;;11.50;10.25;;;;;;;;5010135;28;8869;-80
2022/07/31 07:50:33;;;;;;;;;16.50;16.50;;;;;;;;5016589;28;8860;-81
2022/07/31 07:53:00;;;;;;;;;13.80;13.80;;;;;;;;5017141;28;8886;-81
2022/07/31 07:55:28;;;;;;;;;14.20;14.20;;;;;;;;5016717;28;8881;-81
2022/07/31 07:57:56;;;;;;;;;21.00;15.80;;;;;;;;5014911;28;10216;-81
2022/07/31 08:00:23;;;;;;;;;16.00;16.00;;;;;;;;5014955;28;8936;-80
2022/07/31 08:02:52;;;;;;;;;15.40;14.20;;;;;;;;5017320;28;8972;-80
2022/07/31 08:05:19;;;;;;;;;16.00;16.00;;;;;;;;5009648;28;8881;-79
2022/07/31 08:07:46;;;;;;;;;19.00;18.40;;;;;;;;5017384;28;8856;-80
2022/07/31 08:10:17;;;;;;;;;22.60;18.00;;;;;;;;5014562;28;8951;-81
2022/07/31 08:12:45;;;;;;;;;22.20;20.00;;;;;;;;5011312;28;8888;-80
2022/07/31 08:15:13;;;;;;;;;22.00;20.00;;;;;;;;5013973;28;8861;-80
2022/07/31 08:17:40;;;;;;;;;19.60;18.80;;;;;;;;5009681;28;8873;-81
2022/07/31 08:20:09;;;;;;;;;23.25;22.25;;;;;;;;5018169;28;8866;-80
2022/07/31 08:22:38;;;;;;;;;28.50;26.75;;;;;;;;5005642;28;8904;-81
2022/07/31 08:25:06;;;;;;;;;24.25;24.25;;;;;;;;5019196;28;8849;-81
2022/07/31 08:27:33;;;;;;;;;27.25;25.50;;;;;;;;5012702;28;8925;-80
2022/07/31 08:30:01;;;;;;;;;25.50;24.00;;;;;;;;5012242;28;8915;-82
2022/07/31 08:32:28;;;;;;;;;26.00;25.00;;;;;;;;5011212;28;8829;-80
2022/07/31 08:34:56;;;;;;;;;27.50;24.50;;;;;;;;5007954;28;9699;-80
2022/07/31 08:37:25;;;;;;;;;29.00;27.25;;;;;;;;5037366;28;8890;-81
2022/07/31 08:39:52;;;;;;;;;25.50;23.75;;;;;;;;5017833;28;8922;-81
2022/07/31 08:42:20;;;;;;;;;31.00;29.25;;;;;;;;5014091;28;8877;-80
2022/07/31 08:44:47;;;;;;;;;27.50;25.50;;;;;;;;5018702;28;8869;-81
2022/07/31 08:47:16;;;;;;;;;26.00;25.75;;;;;;;;5004362;28;8918;-80
2022/07/31 08:49:45;;;;;;;;;27.00;25.25;;;;;;;;5006272;28;9762;-81
2022/07/31 08:52:18;;;;;;;;;33.25;30.25;;;;;;;;5009182;28;8979;-81
2022/07/31 08:54:47;;;;;;;;;25.50;25.25;;;;;;;;5014129;28;8862;-81
2022/07/31 08:57:14;;;;;;;;;29.50;28.25;;;;;;;;5010411;28;8895;-78
2022/07/31 08:59:42;;;;;;;;;24.60;23.20;;;;;;;;5008551;28;9014;-77
2022/07/31 09:02:10;;;;;;;;;20.80;20.80;;;;;;;;5006702;28;8847;-80
2022/07/31 09:04:38;;;;;;;;;24.20;23.80;;;;;;;;5006094;28;8999;-79
2022/07/31 09:07:06;;;;;;;;;25.00;24.80;;;;;;;;5003994;28;8856;-79
2022/07/31 09:09:33;;;;;;;;;23.60;22.00;;;;;;;;5010672;28;8890;-78
2022/07/31 09:12:03;;;;;;;;;19.80;19.60;;;;;;;;5011499;28;9675;-79
2022/07/31 09:14:33;;;;;;;;;19.60;19.20;;;;;;;;5006367;28;8856;-78
2022/07/31 09:17:01;;;;;;;;;18.40;17.20;;;;;;;;5006763;28;9634;-78
2022/07/31 09:19:37;;;;;;;;;20.20;19.20;;;;;;;;5006144;28;9579;-76
2022/07/31 09:22:04;;;;;;;;;14.60;14.60;;;;;;;;5010929;28;8856;-76
2022/07/31 09:24:33;;;;;;;;;19.20;19.20;;;;;;;;5011340;28;8881;-77
2022/07/31 09:27:07;;;;;;;;;11.60;11.60;;;;;;;;5007089;28;9668;-77
2022/07/31 09:29:36;;;;;;;;;16.00;14.40;;;;;;;;5007822;28;8895;-77
2022/07/31 09:32:14;;;;;;;;;13.00;13.00;;;;;;;;5012347;28;8809;-78
2022/07/31 09:34:42;;;;;;;;;13.20;13.00;;;;;;;;4996924;28;8852;-78
2022/07/31 09:37:11;;;;;;;;;13.00;11.80;;;;;;;;5006927;28;8873;-79
2022/07/31 09:39:39;;;;;;;;;15.40;15.40;;;;;;;;5008310;28;8910;-78
2022/07/31 09:42:08;;;;;;;;;17.40;17.40;;;;;;;;5002689;28;8872;-78
2022/07/31 09:44:38;;;;;;;;;14.80;11.40;;;;;;;;5003838;28;9230;-78
2022/07/31 09:47:05;;;;;;;;;12.80;12.80;;;;;;;;5004031;28;8880;-78
2022/07/31 09:49:33;;;;;;;;;9.40;9.40;;;;;;;;5003485;28;8982;-78
2022/07/31 09:52:01;;;;;;;;;16.00;12.80;;;;;;;;5005038;28;8914;-79
2022/07/31 09:54:30;;;;;;;;;14.00;12.60;;;;;;;;5002774;28;8904;-78
2022/07/31 09:56:58;;;;;;;;;10.40;8.80;;;;;;;;5004804;28;9458;-78
2022/07/31 09:59:26;;;;;;;;;8.80;8.20;;;;;;;;5001566;28;8914;-78
2022/07/31 10:01:54;;;;;;;;;9.60;9.40;;;;;;;;5003430;28;8936;-77
2022/07/31 10:04:22;;;;;;;;;12.20;10.40;;;;;;;;5002984;28;8884;-78
2022/07/31 10:06:58;;;;;;;;;9.80;9.80;;;;;;;;5005065;28;8951;-78
2022/07/31 10:09:26;;;;;;;;;8.40;8.40;;;;;;;;5004725;28;8922;-78
2022/07/31 10:11:56;;;;;;;;;6.20;6.20;;;;;;;;5003436;28;8868;-79
2022/07/31 10:14:31;;;;;;;;;5.40;3.80;;;;;;;;5004818;28;8881;-78
2022/07/31 10:17:03;;;;;;;;;5.20;4.00;;;;;;;;5007086;28;8877;-78
2022/07/31 10:19:35;;;;;;;;;4.00;4.00;;;;;;;;5012310;28;8995;-79
2022/07/31 10:22:05;;;;;;;;;4.60;3.60;;;;;;;;5016774;28;8887;-79
2022/07/31 10:24:33;;;;;;;;;5.00;5.00;;;;;;;;5012474;28;8881;-78
2022/07/31 10:27:01;;;;;;;;;3.60;3.60;;;;;;;;5016744;28;8874;-79
2022/07/31 10:29:29;;;;;;;;;2.80;2.80;;;;;;;;5012177;28;9248;-78
2022/07/31 10:31:57;;;;;;;;;3.60;3.60;;;;;;;;5014078;28;8828;-79
2022/07/31 10:34:25;;;;;;;;;2.80;2.80;;;;;;;;5010333;28;8876;-78
2022/07/31 10:36:59;;;;;;;;;4.40;4.40;;;;;;;;5008959;28;8880;-78
2022/07/31 10:39:37;;;;;;;;;3.00;3.00;;;;;;;;5015642;28;8874;-78
2022/07/31 10:42:13;;;;;;;;;4.00;4.00;;;;;;;;5011196;28;8890;-79
2022/07/31 10:44:45;;;;;;;;;3.00;3.00;;;;;;;;5011089;28;8958;-79
2022/07/31 10:47:13;;;;;;;;;2.80;2.80;;;;;;;;5006258;28;8894;-78
2022/07/31 10:49:42;;;;;;;;;3.20;3.20;;;;;;;;5015580;28;8881;-79
2022/07/31 10:52:09;;;;;;;;;3.60;3.60;;;;;;;;5012794;28;8876;-79
2022/07/31 10:54:41;;;;;;;;;3.00;3.00;;;;;;;;5020032;28;8904;-78
2022/07/31 10:57:08;;;;;;;;;2.00;2.00;;;;;;;;5016443;28;8874;-78
2022/07/31 10:59:35;;;;;;;;;2.00;2.00;;;;;;;;5017340;28;9012;-78
2022/07/31 11:02:04;;;;;;;;;2.60;2.60;;;;;;;;5017044;28;9638;-78
2022/07/31 11:04:32;;;;;;;;;3.80;3.80;;;;;;;;5013397;28;8860;-78
2022/07/31 11:07:00;;;;;;;;;2.00;2.00;;;;;;;;5017566;28;8980;-78
2022/07/31 11:09:28;;;;;;;;;3.00;2.20;;;;;;;;5014808;28;8871;-78
2022/07/31 11:11:56;;;;;;;;;3.80;3.80;;;;;;;;5016267;28;8874;-78
2022/07/31 11:14:41;;;;;;;;;3.20;3.20;;;;;;;;5012754;28;8852;-77
2022/07/31 11:17:10;;;;;;;;;3.60;3.60;;;;;;;;5009913;28;8894;-78
2022/07/31 11:19:38;;;;;;;;;4.20;4.20;;;;;;;;5010787;28;8852;-78
2022/07/31 11:22:14;;;;;;;;;3.80;3.80;;;;;;;;5019123;28;8885;-78
2022/07/31 11:24:41;;;;;;;;;5.20;5.20;;;;;;;;5015947;28;9048;-78
2022/07/31 11:27:08;;;;;;;;;5.20;4.00;;;;;;;;5016253;28;8889;-78
2022/07/31 11:29:38;;;;;;;;;6.00;6.00;;;;;;;;5016907;28;8908;-78
2022/07/31 11:32:17;;;;;;;;;5.60;5.60;;;;;;;;5015639;28;8809;-76
2022/07/31 11:34:49;;;;;;;;;5.80;5.80;;;;;;;;5011793;28;10005;-78
2022/07/31 11:37:22;;;;;;;;;11.00;7.20;;;;;;;;5013532;28;8860;-78
2022/07/31 11:39:49;;;;;;;;;6.60;6.60;;;;;;;;5018730;28;8889;-79
2022/07/31 11:42:18;;;;;;;;;9.80;7.80;;;;;;;;5014472;28;8896;-78
2022/07/31 11:44:45;;;;;;;;;7.00;7.00;;;;;;;;5014930;28;8916;-79
2022/07/31 11:47:13;;;;;;;;;7.40;7.20;;;;;;;;5011021;28;8868;-77
2022/07/31 11:49:42;;;;;;;;;6.80;6.60;;;;;;;;5013418;28;8877;-79
2022/07/31 11:52:11;;;;;;;;;6.80;6.80;;;;;;;;5014687;28;8900;-79
2022/07/31 11:54:39;;;;;;;;;9.60;9.60;;;;;;;;5016879;28;8881;-80
2022/07/31 11:57:06;;;;;;;;;12.60;12.20;;;;;;;;5015628;28;8901;-79
2022/07/31 11:59:35;;;;;;;;;10.80;9.40;;;;;;;;5017123;28;9651;-79
2022/07/31 12:02:04;;;;;;;;;10.00;10.00;;;;;;;;5016088;28;9626;-79
2022/07/31 12:04:32;;;;;;;;;10.40;10.40;;;;;;;;5012072;28;8942;-79
2022/07/31 12:07:01;;;;;;;;;10.40;10.40;;;;;;;;5013084;28;9669;-79
2022/07/31 12:09:30;;;;;;;;;10.00;10.00;;;;;;;;5012035;28;8876;-79
2022/07/31 12:11:58;;;;;;;;;9.00;9.00;;;;;;;;5017492;28;9998;-80
2022/07/31 12:14:29;;;;;;;;;10.80;10.80;;;;;;;;5013035;28;8864;-80
2022/07/31 12:16:57;;;;;;;;;10.60;8.20;;;;;;;;5018123;28;8858;-80
2022/07/31 12:19:28;;;;;;;;;9.00;9.00;;;;;;;;5008645;28;8876;-81
2022/07/31 12:21:55;;;;;;;;;5.20;5.20;;;;;;;;5019794;28;8881;-80
2022/07/31 12:24:38;;;;;;;;;10.50;10.50;;;;;;;;4974951;28;1163522;-81
2022/07/31 12:27:20;;;;;;;;;8.40;8.40;;;;;;;;5020165;28;9710;-81
2022/07/31 12:29:48;;;;;;;;;7.40;7.40;;;;;;;;5006649;28;8868;-80
2022/07/31 12:32:24;;;;;;;;;8.80;8.40;;;;;;;;5004507;28;8828;-80
2022/07/31 12:35:01;;;;;;;;;8.00;8.00;;;;;;;;5006400;28;9023;-80
2022/07/31 12:37:29;;;;;;;;;8.80;8.60;;;;;;;;5005955;28;8864;-80
2022/07/31 12:39:57;;;;;;;;;8.20;8.20;;;;;;;;5005611;28;8872;-80
2022/07/31 12:42:26;;;;;;;;;7.60;6.80;;;;;;;;5006135;28;9000;-81
2022/07/31 12:44:55;;;;;;;;;6.00;6.00;;;;;;;;5003428;28;8892;-81
2022/07/31 12:47:23;;;;;;;;;5.00;5.00;;;;;;;;5006153;28;9845;-80
2022/07/31 12:49:51;;;;;;;;;6.60;6.60;;;;;;;;5003933;28;8876;-80
2022/07/31 12:52:18;;;;;;;;;5.00;5.00;;;;;;;;5006294;28;8884;-80
2022/07/31 12:54:46;;;;;;;;;7.40;6.20;;;;;;;;5014332;28;8876;-81
2022/07/31 12:57:15;;;;;;;;;9.00;6.20;;;;;;;;5004630;28;8904;-80
2022/07/31 12:59:42;;;;;;;;;4.40;4.00;;;;;;;;5005696;28;8879;-78
2022/07/31 13:02:10;;;;;;;;;5.60;5.60;;;;;;;;5003799;28;8907;-78
2022/07/31 13:04:38;;;;;;;;;7.60;5.40;;;;;;;;5005437;28;8868;-79
2022/07/31 13:07:05;;;;;;;;;4.00;2.40;;;;;;;;5004147;28;8886;-78
2022/07/31 13:09:32;;;;;;;;;3.60;3.60;;;;;;;;5006692;28;8874;-78
2022/07/31 13:12:02;;;;;;;;;5.80;5.80;;;;;;;;5004875;28;8860;-78
2022/07/31 13:14:32;;;;;;;;;4.20;4.20;;;;;;;;5004005;28;8898;-79
2022/07/31 13:16:59;;;;;;;;;5.20;5.00;;;;;;;;5016289;28;9616;-78
2022/07/31 13:19:27;;;;;;;;;4.80;4.80;;;;;;;;5011274;28;8865;-78
2022/07/31 13:21:54;;;;;;;;;4.80;4.80;;;;;;;;5018642;28;9783;-79
2022/07/31 13:24:22;;;;;;;;;4.00;4.00;;;;;;;;5011610;28;8911;-79
2022/07/31 13:26:49;;;;;;;;;2.20;2.20;;;;;;;;5014752;28;9011;-79
2022/07/31 13:29:17;;;;;;;;;1.00;1.00;;;;;;;;5011198;28;8894;-79
2022/07/31 13:31:46;;;;;;;;;1.60;1.60;;;;;;;;5015420;28;8814;-79
2022/07/31 13:34:16;;;;;;;;;2.20;1.20;;;;;;;;5013330;28;8856;-81
2022/07/31 13:36:44;;;;;;;;;2.00;2.00;;;;;;;;5012694;28;8877;-80
2022/07/31 13:39:11;;;;;;;;;1.80;1.40;;;;;;;;5015073;28;8975;-81
2022/07/31 13:41:40;;;;;;;;;1.80;1.80;;;;;;;;5015414;28;8900;-79
2022/07/31 13:44:08;;;;;;;;;1.00;1.00;;;;;;;;5015476;28;8873;-80
2022/07/31 13:46:35;;;;;;;;;1.00;1.00;;;;;;;;5013529;28;8889;-81
2022/07/31 13:49:07;;;;;;;;;0.40;0.40;;;;;;;;5015101;28;8862;-80
2022/07/31 13:51:34;;;;;;;;;1.80;1.80;;;;;;;;5014480;28;9607;-80
2022/07/31 13:54:02;;;;;;;;;3.40;2.00;;;;;;;;5015221;28;9729;-80
2022/07/31 13:56:29;;;;;;;;;1.00;1.00;;;;;;;;5014266;28;8876;-80
2022/07/31 13:58:56;;;;;;;;;0.20;0.20;;;;;;;;5010217;28;8983;-81
2022/07/31 14:01:23;;;;;;;;;1.20;1.20;;;;;;;;5006195;28;8805;-81
2022/07/31 14:03:51;;;;;;;;;0.40;0.40;;;;;;;;5014266;28;8877;-80
2022/07/31 14:06:19;;;;;;;;;0.20;0.20;;;;;;;;5013111;28;8909;-80
2022/07/31 14:08:47;;;;;;;;;1.00;1.00;;;;;;;;5016106;28;8981;-80
2022/07/31 14:11:14;;;;;;;;;0.60;0.60;;;;;;;;5011843;28;8894;-80
2022/07/31 14:13:41;;;;;;;;;0.80;0.80;;;;;;;;5016365;28;8857;-80
2022/07/31 14:16:08;;;;;;;;;2.80;2.80;;;;;;;;5010275;28;8872;-80
2022/07/31 14:18:36;;;;;;;;;1.20;1.20;;;;;;;;5014360;28;8976;-81
2022/07/31 14:21:06;;;;;;;;;2.00;2.00;;;;;;;;5010681;28;8884;-80
2022/07/31 14:23:36;;;;;;;;;0.80;0.80;;;;;;;;5017919;28;9671;-80
2022/07/31 14:26:03;;;;;;;;;2.00;2.00;;;;;;;;5009818;28;8892;-80
2022/07/31 14:28:31;;;;;;;;;0.60;0.60;;;;;;;;5017783;28;8887;-80
2022/07/31 14:30:58;;;;;;;;;1.20;1.20;;;;;;;;5007786;28;8939;-80
2022/07/31 14:33:25;;;;;;;;;2.00;2.00;;;;;;;;5016061;28;8912;-80
2022/07/31 14:35:55;;;;;;;;;0.60;0.60;;;;;;;;5001754;28;8856;-80
2022/07/31 14:38:23;;;;;;;;;2.20;2.20;;;;;;;;5016414;28;8878;-80
2022/07/31 14:40:52;;;;;;;;;2.20;2.20;;;;;;;;5014397;28;8872;-80
2022/07/31 14:43:20;;;;;;;;;4.20;4.20;;;;;;;;5015305;28;8898;-80
2022/07/31 14:45:47;;;;;;;;;2.20;2.20;;;;;;;;5014350;28;8892;-79
2022/07/31 14:48:14;;;;;;;;;1.60;1.60;;;;;;;;5015086;28;8881;-80
2022/07/31 14:50:41;;;;;;;;;1.40;1.40;;;;;;;;5013376;28;8931;-80
2022/07/31 14:53:10;;;;;;;;;2.00;2.00;;;;;;;;5015422;28;8887;-80
2022/07/31 14:55:37;;;;;;;;;4.00;2.20;;;;;;;;5013747;28;8877;-80
2022/07/31 14:58:06;;;;;;;;;1.00;1.00;;;;;;;;5008225;28;8891;-80